Terminal Aerodrome Forecast
Issued by NWS

Home | Current Version | Previous Version | Text Only | Print | Product List | Glossary On
Versions: 1 2 3 4 5 6 7 8 9 10 11 12 13 14 15
000
FTUS45 KGJT 212337
TAFMTJ
TAF
KMTJ 212337Z 2200/2224 31020G30KT P6SM FEW020 BKN080
     FM220130 30009KT P6SM SCT030 BKN070
     FM220300 26008KT P6SM SCT030 BKN060
     FM220500 15006KT P6SM SCT030 BKN060
     FM220800 13006KT P6SM FEW040 SCT140
     FM221800 00000KT P6SM FEW110 SCT250=

USA.gov is the U.S. government's official web portal to all federal, state and local government web resources and services.